Portada
METAR-TAF:

METAR-TAF

Aeroports :

Islamabad, Pakistan

latitud: 33-32-57N, longitud: 072-49-32E, altitud: 537 m

Observació

L'informe es va fer fa 10 minuts, a les 18:25 UTC
Vent 4 kt del Est/Nord-Est
Temperatura 21°C
Humitat 83%
Pressió 1015 hPa
Visibilitat: 4000 m
calitja

METAR: OPIS 141825Z 06004KT 4000 HZ NSC 21/18 Q1015 RH84

Hora: 23:35 (18:35 UTC)

Pronòstic

L'informe es va fer fa 3 hores i 5 minuts, a les 15:30 UTC
Pronòstic vàlid del 14 a les 18 UTC al 15 a les 24 UTC
Vent 8 kt del Est/Sud-Est
Visibilitat: 4000 m
calitja
Temporalment
l' 14 a les 23 UTC al 15 a les 04 UTC
Visibilitat: 1500 m
fum
Temporalment
l' 15 a les 06 UTC al 15 a les 12 UTC
Vent 10 kt del Oest/Nord-Oest
Visibilitat: 6000 m
Escasses núvols a una alçada de 4000 ft
Núvols disperses a una alçada de 10000 ft

TAF: OPIS 141530Z 1418/1524 12008KT 4000 HZ NSC TEMPO 1423/1504 1500 FU TEMPO 1506/1512 29010KT 6000 FEW040 SCT100

Observacions i pronòstics meteorològics de més de 4000 aeroports (METAR i TAF).

Les estacions disponibles són els punts grocs i vermells al mapa.

Posi el ratolí al punt desitjat per veure el nom de l'estació.

Feu clic per veure les observacions i els pronòstics meteorològics.

Per canviar el mapa: feu clic els botons verds amb una creu de color negre per apropar; al botó verd amb un guió per allunyar la imatge; o en les fletxes verdes per a mapes adjacents.


METAR-TAF: